Latest Weather Observations for Shay Gap

IDW60801

Issued at 7:32 am WST Saturday 4 July 2015 (issued every 30 minutes, with the page automatically refreshed every 10 minutes)

About weather observations | Map of weather stations | Latest weather observations for WA | Other Formats
Station Details ID: 504045 Name: SHAY GAP Lat: -20.43 Lon: 120.13 Height: 173.83 m
Data from the previous 72 hours. | See also: Recent months for locations in Western Australia
Date/Time
WST
Temp
°C
App
Temp
°C
Dew
Point
Rel
Hum
%
Delta-T
°C
Wind Press
QNH
hPa
Press
MSL
hPa
Rain
since 9 am
mm
Dir
 
Spd
km/h
Gust
km/h
Spd
kts
Gust
kts
04/07:30am 15.3 9.9 1.4 39 6.1 SE 19 22 10 12 1019.9 1019.4 0.0
04/07:00am 14.3 9.0 1.6 42 5.6 SE 19 22 10 12 1019.7 1019.2 0.0
04/06:30am 15.1 9.1 1.3 39 6.1 SE 22 30 12 16 1019.6 1019.1 0.0
04/06:00am 13.4 8.9 2.3 47 4.9 SE 15 17 8 9 1019.3 1018.8 0.0
04/05:30am 12.5 8.4 2.4 50 4.4 SSE 13 15 7 8 1019.1 1018.6 0.0
04/05:00am 12.6 8.2 2.5 50 4.4 SE 15 17 8 9 1019.0 1018.5 0.0
04/04:30am 13.1 8.6 2.1 47 4.8 SSE 15 17 8 9 1018.9 1018.4 0.0
04/04:00am 14.4 9.5 2.0 43 5.5 SSE 17 19 9 10 1018.8 1018.3 0.0
04/03:30am 15.1 9.9 2.3 42 5.7 SE 19 20 10 11 1018.9 1018.4 0.0
04/03:00am 15.4 10.9 1.9 40 6.0 SE 15 17 8 9 1019.0 1018.5 0.0
04/02:30am 16.1 11.2 2.2 39 6.3 SSE 17 20 9 11 1019.0 1018.5 0.0
04/02:00am 15.9 11.4 2.0 39 6.2 SE 15 19 8 10 1019.1 1018.6 0.0
04/01:30am 16.5 11.6 2.2 38 6.5 SE 17 20 9 11 1019.2 1018.7 0.0
04/01:00am 17.4 12.8 1.8 35 7.0 SE 15 20 8 11 1019.3 1018.8 0.0
04/12:30am 19.0 13.8 2.4 33 7.7 SSE 19 22 10 12 1019.3 1018.8 0.0
04/12:00am 19.9 14.1 2.3 31 8.2 SSE 22 28 12 15 1019.4 1018.9 0.0
 
Date/Time
WST
Temp
°C
App
Temp
°C
Dew
Point
Rel
Hum
%
Delta-T
°C
Wind Press
QNH
hPa
Press
MSL
hPa
Rain
since 9 am
mm
Dir
 
Spd
km/h
Gust
km/h
Spd
kts
Gust
kts
03/11:30pm 18.3 13.5 2.6 35 7.3 SE 17 20 9 11 1019.6 1019.1 0.0
03/11:00pm 17.5 13.0 2.3 36 6.9 SSE 15 17 8 9 1019.6 1019.1 0.0
03/10:30pm 19.0 14.2 2.4 33 7.7 SSE 17 20 9 11 1019.7 1019.2 0.0
03/10:00pm 18.9 14.5 2.7 34 7.5 SSE 15 17 8 9 1019.8 1019.3 0.0
03/09:30pm 19.8 15.0 2.6 32 8.1 SSE 17 19 9 10 1019.8 1019.3 0.0
03/09:00pm 20.5 15.7 2.8 31 8.3 SE 17 20 9 11 1019.8 1019.3 0.0
03/08:30pm 19.4 15.2 3.6 35 7.5 SSE 15 17 8 9 1019.7 1019.2 0.0
03/08:00pm 19.0 15.1 3.2 35 7.4 SSE 13 15 7 8 1019.6 1019.1 0.0
03/07:30pm 19.6 15.8 3.7 35 7.6 SSE 13 15 7 8 1019.4 1018.9 0.0
03/07:00pm 20.0 16.2 3.7 34 7.8 SSE 13 17 7 9 1019.2 1018.7 0.0
03/06:30pm 21.0 17.1 3.2 31 8.5 SSE 13 17 7 9 1018.9 1018.4 0.0
03/06:00pm 22.3 18.4 3.4 29 9.1 SSE 13 17 7 9 1018.6 1018.1 0.0
03/05:30pm 24.6 20.7 3.3 25 10.5 SSE 13 17 7 9 1018.2 1017.7 0.0
03/05:00pm 26.5 21.8 3.1 22 11.6 SSE 17 20 9 11 1017.9 1017.4 0.0
03/04:30pm 27.1 22.0 2.9 21 12.0 ESE 19 24 10 13 1017.7 1017.2 0.0
03/04:00pm 27.5 22.8 3.2 21 12.1 ESE 17 28 9 15 1017.5 1017.0 0.0
03/03:30pm 28.1 23.1 3.7 21 12.4 SE 19 24 10 13 1017.5 1017.0 0.0
03/03:00pm 27.7 22.9 2.7 20 12.4 SE 17 24 9 13 1017.6 1017.1 0.0
03/02:30pm 27.6 23.6 2.6 20 12.4 SSE 13 20 7 11 1017.7 1017.2 0.0
03/02:00pm 28.3 24.4 3.2 20 12.6 SE 13 30 7 16 1017.9 1017.4 0.0
03/01:30pm 28.4 23.7 3.3 20 12.7 SE 17 32 9 17 1018.2 1017.7 0.0
03/01:00pm 28.1 22.9 3.7 21 12.3 SE 20 30 11 16 1018.7 1018.2 0.0
03/12:30pm 27.2 20.3 2.3 20 12.2 SE 28 35 15 19 1019.0 1018.5 0.0
03/12:00pm 27.5 20.6 2.6 20 12.3 SE 28 41 15 22 1019.5 1019.0 0.0
03/11:30am 27.0 19.3 2.1 20 12.2 ESE 32 41 17 22 1020.1 1019.7 0.0
03/11:00am 25.6 17.6 1.7 21 11.5 ESE 33 41 18 22 1020.5 1020.1 0.0
03/10:30am 24.7 17.0 2.2 23 10.9 SE 32 43 17 23 1020.8 1020.4 0.0
03/10:00am 24.2 16.5 2.4 24 10.5 SE 32 43 17 23 1021.1 1020.7 0.0
03/09:30am 23.4 16.5 2.8 26 10.0 SE 28 35 15 19 1021.2 1020.8 0.0
03/09:00am 21.9 14.6 2.6 28 9.2 SE 30 37 16 20 1021.2 1020.8 0.0
03/08:30am 20.5 13.6 2.3 30 8.5 SE 28 35 15 19 1021.2 1020.8 0.0
03/08:00am 19.2 12.4 3.0 34 7.6 SE 28 37 15 20 1021.1 1020.7 0.0
03/07:30am 17.8 12.1 2.9 37 6.9 SE 22 28 12 15 1020.7 1020.3 0.0
03/07:00am 16.3 11.0 3.0 41 6.1 SE 20 24 11 13 1020.6 1020.2 0.0
03/06:30am 16.5 10.9 3.2 41 6.1 SE 22 28 12 15 1020.3 1019.9 0.0
03/06:00am 16.9 11.6 3.2 40 6.3 SE 20 26 11 14 1019.9 1019.4 0.0
03/05:30am 16.4 11.8 3.5 42 6.0 SE 17 20 9 11 1019.8 1019.3 0.0
03/05:00am 16.6 11.9 3.3 41 6.1 SE 17 20 9 11 1019.6 1019.1 0.0
03/04:30am 16.5 11.9 3.6 42 6.0 SE 17 20 9 11 1019.6 1019.1 0.0
03/04:00am 17.0 11.9 3.3 40 6.4 SE 19 22 10 12 1019.6 1019.1 0.0
03/03:30am 17.7 12.4 2.8 37 6.9 SE 20 24 11 13 1019.5 1019.0 0.0
03/03:00am 18.0 12.7 3.1 37 6.9 SE 20 26 11 14 1019.5 1019.0 0.0
03/02:30am 18.5 13.2 3.2 36 7.2 SE 20 26 11 14 1019.6 1019.1 0.0
03/02:00am 18.4 13.2 3.5 37 7.0 SE 20 22 11 12 1019.9 1019.4 0.0
03/01:30am 18.2 13.2 3.7 38 6.9 SE 19 20 10 11 1020.1 1019.7 0.0
03/01:00am 19.1 13.9 3.7 36 7.3 SE 20 24 11 13 1020.3 1019.9 0.0
03/12:30am 17.9 13.8 4.5 41 6.4 SE 15 17 8 9 1020.7 1020.3 0.0
03/12:00am 16.7 13.0 4.7 45 5.7 SE 13 15 7 8 1020.8 1020.4 0.0
 
Date/Time
WST
Temp
°C
App
Temp
°C
Dew
Point
Rel
Hum
%
Delta-T
°C
Wind Press
QNH
hPa
Press
MSL
hPa
Rain
since 9 am
mm
Dir
 
Spd
km/h
Gust
km/h
Spd
kts
Gust
kts
02/11:30pm 18.6 14.9 4.4 39 6.8 SE 13 17 7 9 1020.8 1020.4 0.0
02/11:00pm 17.9 13.7 5.8 45 5.9 SSE 17 19 9 10 1020.8 1020.4 0.0
02/10:30pm 18.4 14.8 6.9 47 5.8 SSE 15 15 8 8 1020.9 1020.5 0.0
02/10:00pm 18.6 15.1 7.4 48 5.7 SSE 15 19 8 10 1021.2 1020.8 0.0
02/09:30pm 18.5 15.1 7.6 49 5.6 S 15 19 8 10 1020.9 1020.5 0.0
02/09:00pm 19.5 16.9 7.6 46 6.1 SW 11 13 6 7 1020.7 1020.3 0.0
02/08:30pm 19.8 16.7 7.2 44 6.5 WSW 13 13 7 7 1020.7 1020.3 0.0
02/08:00pm 20.2 17.5 7.2 43 6.7 W 11 13 6 7 1020.6 1020.2 0.0
02/07:30pm 21.9 18.2 6.2 36 8.0 NW 15 17 8 9 1020.3 1019.9 0.0
02/07:00pm 23.3 19.9 6.1 33 8.8 N 13 17 7 9 1020.0 1019.6 0.0
02/06:30pm 22.3 18.9 5.7 34 8.4 SSE 13 13 7 7 1019.5 1019.0 0.0
02/06:00pm 24.1 21.5 5.9 31 9.3 SSE 9 13 5 7 1019.2 1018.7 0.0
02/05:30pm 25.1 21.9 5.3 28 10.1 S 11 13 6 7 1019.0 1018.5 0.0
02/05:00pm 27.4 24.2 5.1 24 11.5 S 11 19 6 10 1018.9 1018.4 0.0
02/04:30pm 28.2 24.6 5.1 23 12.0 SE 13 20 7 11 1018.8 1018.3 0.0
02/04:00pm 28.4 24.3 4.6 22 12.2 ESE 15 22 8 12 1018.6 1018.1 0.0
02/03:30pm 28.7 24.7 4.9 22 12.4 ESE 15 24 8 13 1018.4 1017.9 0.0
02/03:00pm 29.1 24.4 5.2 22 12.5 ESE 19 28 10 15 1018.4 1017.9 0.0
02/02:30pm 28.9 25.7 5.1 22 12.4 E 11 24 6 13 1018.5 1018.0 0.0
02/02:00pm 29.1 24.8 5.2 22 12.5 ESE 17 24 9 13 1018.8 1018.3 0.0
02/01:30pm 28.9 23.7 5.7 23 12.2 E 22 35 12 19 1019.2 1018.7 0.0
02/01:00pm 28.6 23.4 5.5 23 12.1 ESE 22 33 12 18 1019.5 1019.0 0.0
02/12:30pm 28.3 24.0 5.2 23 12.0 ENE 17 32 9 17 1020.1 1019.7 0.0
02/12:00pm 28.4 23.2 5.3 23 12.0 ESE 22 30 12 16 1020.6 1020.2 0.0
02/11:30am 27.9 22.3 5.5 24 11.7 ESE 24 32 13 17 1021.3 1020.9 0.0
02/11:00am 26.8 21.5 5.1 25 11.1 ESE 22 28 12 15 1021.9 1021.5 0.0
02/10:30am 25.7 20.5 5.3 27 10.5 ESE 22 32 12 17 1022.3 1021.9 0.0
02/10:00am 23.6 17.3 4.0 28 9.7 SE 26 32 14 17 1022.6 1022.2 0.0
02/09:30am 23.3 17.9 4.3 29 9.4 ESE 22 33 12 18 1022.9 1022.4 0.0
02/09:00am 21.5 15.6 4.1 32 8.5 ESE 24 32 13 17 1022.9 1022.4 0.0
02/08:30am 19.7 14.1 3.4 34 7.8 SE 22 30 12 16 1022.8 1022.3 0.0
02/08:00am 18.2 13.0 3.3 37 7.0 SE 20 30 11 16 1022.6 1022.2 0.0
02/07:30am 16.9 10.9 3.2 40 6.4 SE 24 32 13 17 1022.2 1021.8 0.0
02/07:00am 15.2 10.9 3.4 45 5.4 SSE 15 19 8 10 1021.8 1021.4 0.0
02/06:30am 15.3 10.3 3.5 45 5.4 SSE 19 24 10 13 1021.5 1021.1 0.0
02/06:00am 15.3 10.2 3.1 44 5.6 SE 19 22 10 12 1021.4 1021.0 0.0
02/05:30am 15.4 10.1 3.2 44 5.6 SE 20 26 11 14 1021.2 1020.8 0.0
02/05:00am 15.9 10.2 3.0 42 5.9 SE 22 26 12 14 1021.0 1020.6 0.0
02/04:30am 16.1 10.8 2.9 41 6.0 SE 20 24 11 13 1020.9 1020.5 0.0
02/04:00am 16.3 11.0 3.0 41 6.1 SE 20 26 11 14 1020.9 1020.5 0.0
02/03:30am 16.1 11.0 2.9 41 6.0 SE 19 22 10 12 1020.8 1020.4 0.0
02/03:00am 16.6 11.4 2.6 39 6.4 SE 19 26 10 14 1020.8 1020.4 0.0
02/02:30am 17.0 11.9 3.3 40 6.4 SE 19 24 10 13 1020.9 1020.5 0.0
02/02:00am 16.0 11.7 3.4 43 5.8 SSE 15 17 8 9 1021.2 1020.8 0.0
02/01:30am 17.0 12.4 3.7 41 6.2 SSE 17 20 9 11 1021.3 1020.9 0.0
02/01:00am 16.3 12.1 3.7 43 5.9 SSE 15 17 8 9 1021.5 1021.1 0.0
02/12:30am 16.7 12.5 3.7 42 6.1 SSE 15 17 8 9 1021.5 1021.1 0.0
02/12:00am 17.0 12.8 3.7 41 6.2 SSE 15 17 8 9 1021.4 1021.0 0.0
 
Date/Time
WST
Temp
°C
App
Temp
°C
Dew
Point
Rel
Hum
%
Delta-T
°C
Wind Press
QNH
hPa
Press
MSL
hPa
Rain
since 9 am
mm
Dir
 
Spd
km/h
Gust
km/h
Spd
kts
Gust
kts
01/11:30pm 17.5 13.3 3.8 40 6.5 SE 15 17 8 9 1021.5 1021.1 0.0
01/11:00pm 18.8 15.7 3.4 36 7.2 SE 9 11 5 6 1021.6 1021.2 0.0
01/10:30pm 20.6 17.5 3.8 33 8.1 SE 9 9 5 5 1021.8 1021.4 0.0
01/10:00pm 19.4 16.3 3.6 35 7.5 SE 9 13 5 7 1021.8 1021.4 0.0
01/09:30pm 19.5 16.0 3.6 35 7.6 SE 11 13 6 7 1021.8 1021.4 0.0
01/09:00pm 20.1 17.7 4.2 35 7.7 SE 6 9 3 5 1021.8 1021.4 0.0
01/08:30pm 20.3 18.1 3.5 33 8.0 NNE 4 9 2 5 1021.5 1021.1 0.0
01/08:00pm 22.2 20.8 3.3 29 9.1 CALM 0 0 0 0 1021.3 1020.9 0.0
01/07:30pm 21.8 18.9 4.4 32 8.6 N 9 13 5 7 1021.0 1020.6 0.0
01/07:00pm 21.2 17.8 3.9 32 8.4 SE 11 13 6 7 1020.4 1020.0 0.0
01/06:30pm 22.4 18.5 3.5 29 9.2 SE 13 13 7 7 1020.1 1019.7 0.0
01/06:00pm 22.6 18.5 4.2 30 9.1 SE 15 15 8 8 1019.8 1019.3 0.0
01/05:30pm 25.1 21.5 3.1 24 10.8 ESE 11 13 6 7 1019.5 1019.0 0.0
01/05:00pm 27.8 23.4 2.8 20 12.4 E 15 20 8 11 1019.3 1018.8 0.0
01/04:30pm 28.6 23.8 2.7 19 12.9 E 17 24 9 13 1019.1 1018.6 0.0
01/04:00pm 29.0 23.8 2.3 18 13.3 ENE 19 26 10 14 1019.0 1018.5 0.0
01/03:30pm 29.3 23.5 2.5 18 13.4 ENE 22 32 12 17 1018.9 1018.4 0.0
01/03:00pm 29.2 23.7 1.7 17 13.5 ENE 20 30 11 16 1019.1 1018.6 0.0
01/02:30pm 29.4 23.5 1.8 17 13.6 E 22 33 12 18 1019.1 1018.6 0.0
01/02:00pm 29.3 23.8 1.7 17 13.6 E 20 35 11 19 1019.2 1018.7 0.0
01/01:30pm 29.0 23.4 1.5 17 13.5 E 20 32 11 17 1019.7 1019.2 0.0
01/01:00pm 28.8 23.0 2.1 18 13.2 E 22 33 12 18 1020.1 1019.7 0.0
01/12:30pm 28.4 22.8 1.0 17 13.3 E 20 28 11 15 1020.7 1020.3 0.0
01/12:00pm 27.8 22.2 3.5 21 12.2 ESE 22 32 12 17 1021.4 1021.0 0.0
01/11:30am 26.9 20.5 3.4 22 11.8 ESE 26 33 14 18 1022.0 1021.6 0.0
01/11:00am 25.7 19.4 3.6 24 11.0 SE 26 33 14 18 1022.4 1022.0 0.0
01/10:30am 24.8 18.2 4.0 26 10.4 SE 28 33 15 18 1022.9 1022.4 0.0
01/10:00am 23.7 17.8 4.1 28 9.7 SE 24 33 13 18 1023.2 1022.7 0.0
01/09:30am 22.3 16.0 3.9 30 9.0 SE 26 33 14 18 1023.4 1022.9 0.0
01/09:00am 20.6 14.2 3.3 32 8.2 SE 26 33 14 18 1023.5 1023.0 0.0
01/08:30am 18.6 12.4 2.4 34 7.5 SE 24 33 13 18 1023.2 1022.7 0.0
01/08:00am 16.9 10.3 2.1 37 6.7 SE 26 32 14 17 1022.9 1022.4 0.0

Other Formats:

Comma delimited format used in spreadsheet applications
http://www.bom.gov.au/fwo/IDW60801/IDW60801.99311.axf

JavaScript Object Notation format (JSON) in row-major order
http://www.bom.gov.au/fwo/IDW60801/IDW60801.99311.json